Terminal Aerodrome Forecast
Issued by NWS Portland, OR

Home | Current Version | Previous Version | Text Only | Print | Product List | Glossary On
Versions: 1 2 3 4 5 6 7 8 9 10 11 12 13 14 15 16 17 18 19 20 21 22 23
000
FTUS46 KPQR 080544
TAFHIO
TAF
KHIO 080544Z 0806/0906 08015G25KT P6SM BKN200
     FM081200 08020G30KT P6SM SCT100 OVC150
     FM081730 08015G25KT 2SM -SN BR BKN025 OVC050
     FM081900 08014G23KT 1/2SM SN FG SCT008 BKN015 OVC025
     FM082100 08013G22KT 2SM -FZRASN BR SCT008 BKN015 OVC025
     FM082200 09012G20KT 6SM -FZRA BR SCT015 BKN025 OVC050
     FM090300 12010KT 5SM -RA BR SCT015 BKN025 OVC040=

USA.gov is the U.S. government's official web portal to all federal, state and local government web resources and services.